Time;durP1;ratioP1;P1;durP2;ratioP2;P2;SDS_P1;SDS_P2;PMS_P1;PMS_P2;Temp;Humidity;BMP_temperature;BMP_pressure;BME280_temperature;BME280_humidity;BME280_pressure;Samples;Min_cycle;Max_cycle;Signal;HPM_P1;HPM_P2
2022/10/05 00:02:18;;;;;;;16.70;11.00;;;;;;;11.21;70.60;100997.75;103837;1282;107724;-85
2022/10/05 00:04:48;;;;;;;16.00;10.80;;;;;;;11.20;70.29;100998.45;103762;1281;140459;-85
2022/10/05 00:07:19;;;;;;;16.30;10.50;;;;;;;11.19;70.34;100999.00;104159;1281;95579;-86
2022/10/05 00:09:57;;;;;;;16.30;10.10;;;;;;;11.21;70.48;100996.31;103955;1281;139600;-87
2022/10/05 00:13:02;;;;;;;15.90;9.40;;;;;;;11.21;70.20;100996.84;103984;1282;97396;-86
2022/10/05 00:16:20;;;;;;;15.50;9.40;;;;;;;11.18;70.23;100996.73;104068;1281;139565;-86
2022/10/05 00:18:50;;;;;;;14.90;8.60;;;;;;;11.19;70.18;101001.33;104053;1281;95594;-88
2022/10/05 00:21:23;;;;;;;14.40;8.00;;;;;;;11.22;70.22;100998.43;103994;1281;139861;-85
2022/10/05 00:24:14;;;;;;;14.80;8.00;;;;;;;11.20;70.30;100995.08;104064;1281;108145;-87
2022/10/05 00:27:20;;;;;;;14.80;8.00;;;;;;;11.17;70.33;100993.56;103887;1281;138693;-86
2022/10/05 00:29:50;;;;;;;14.00;7.60;;;;;;;11.12;70.43;100985.83;104204;1281;107722;-87
2022/10/05 00:32:19;;;;;;;13.70;7.90;;;;;;;11.09;70.44;100978.96;104151;1281;95265;-86
2022/10/05 00:34:48;;;;;;;14.30;8.00;;;;;;;11.06;70.68;100976.71;104031;1281;139264;-87
2022/10/05 00:37:18;;;;;;;15.40;7.40;;;;;;;11.01;70.72;100978.73;104189;1281;108725;-88
2022/10/05 00:39:48;;;;;;;14.30;7.00;;;;;;;11.02;70.57;100979.79;104115;1281;139343;-87
2022/10/05 00:42:38;;;;;;;12.00;6.80;;;;;;;10.97;70.68;100975.45;104125;1281;107651;-87
2022/10/05 00:45:35;;;;;;;12.50;6.90;;;;;;;10.94;70.84;100984.75;104157;1281;139600;-87
2022/10/05 00:48:31;;;;;;;14.10;6.70;;;;;;;10.95;70.98;100989.17;104201;1281;96989;-86
2022/10/05 00:51:27;;;;;;;13.70;6.90;;;;;;;10.94;71.10;100993.10;104008;1282;139359;-85
2022/10/05 00:53:59;;;;;;;14.70;7.00;;;;;;;10.92;71.16;100995.44;104242;1281;99902;-84
2022/10/05 00:56:38;;;;;;;13.40;6.70;;;;;;;10.90;71.42;100996.55;104118;1282;107994;-88
2022/10/05 00:59:38;;;;;;;11.90;6.70;;;;;;;10.89;71.56;100995.32;104302;1281;139942;-85
2022/10/05 01:02:38;;;;;;;12.80;6.60;;;;;;;10.85;71.89;100997.34;104186;1281;95727;-86
2022/10/05 01:06:08;;;;;;;12.80;6.80;;;;;;;10.84;71.71;100994.51;104162;1281;111386;-87
2022/10/05 01:09:22;;;;;;;13.00;6.70;;;;;;;10.86;71.86;100985.60;104003;1281;99815;-85
2022/10/05 01:12:14;;;;;;;14.30;7.10;;;;;;;10.86;72.04;100984.52;104209;1280;107546;-86
2022/10/05 01:14:52;;;;;;;13.50;6.90;;;;;;;10.84;72.07;100989.89;104336;1281;95262;-87
2022/10/05 01:17:43;;;;;;;14.40;7.10;;;;;;;10.84;72.08;100990.25;104074;1281;140037;-86
2022/10/05 01:20:38;;;;;;;13.30;6.60;;;;;;;10.86;72.04;100993.59;104186;1281;108762;-87
2022/10/05 01:23:27;;;;;;;11.80;6.50;;;;;;;10.86;72.18;100998.91;104012;1281;139944;-85
2022/10/05 01:26:41;;;;;;;13.50;6.70;;;;;;;10.84;72.32;100995.58;104146;1281;107808;-86
2022/10/05 01:29:22;;;;;;;14.30;7.40;;;;;;;10.83;72.41;100991.31;104080;1281;139794;-86
2022/10/05 01:32:19;;;;;;;13.10;6.90;;;;;;;10.85;72.30;100991.11;104150;1281;95179;-87
2022/10/05 01:34:57;;;;;;;12.70;6.60;;;;;;;10.82;72.16;100988.52;103948;1282;139370;-86
2022/10/05 01:37:30;;;;;;;12.00;6.70;;;;;;;10.80;72.29;100988.73;104180;1281;103150;-84
2022/10/05 01:40:00;;;;;;;14.10;6.80;;;;;;;10.76;72.52;100982.92;103903;1282;141114;-86
2022/10/05 01:42:34;;;;;;;13.60;6.60;;;;;;;10.72;72.64;100983.00;104261;1281;96145;-87
2022/10/05 01:45:05;;;;;;;12.70;6.40;;;;;;;10.71;72.78;100975.90;104140;1281;96944;-85
2022/10/05 01:47:46;;;;;;;14.40;7.30;;;;;;;10.76;72.68;100971.58;104079;1281;110266;-87
2022/10/05 01:50:34;;;;;;;11.40;6.20;;;;;;;10.74;72.79;100976.74;104094;1281;96847;-86
2022/10/05 01:53:23;;;;;;;13.20;6.60;;;;;;;10.77;72.57;100994.46;104003;1281;139238;-87
2022/10/05 01:56:29;;;;;;;13.50;6.70;;;;;;;10.83;72.31;101003.93;104160;1281;96677;-86
2022/10/05 01:59:14;;;;;;;13.00;6.50;;;;;;;10.85;72.67;101000.55;104038;1281;140777;-87
2022/10/05 02:02:02;;;;;;;11.50;6.00;;;;;;;10.82;72.55;100998.46;104024;1281;108741;-85
2022/10/05 02:04:36;;;;;;;12.00;6.50;;;;;;;10.83;72.60;101000.94;104085;1281;140839;-86
2022/10/05 02:07:35;;;;;;;12.70;6.80;;;;;;;10.79;72.61;101001.54;104139;1281;107630;-87
2022/10/05 02:10:32;;;;;;;13.40;6.80;;;;;;;10.77;72.71;100998.37;104068;1282;139349;-85
2022/10/05 02:13:39;;;;;;;10.30;6.10;;;;;;;10.65;72.72;100985.60;103993;1284;95824;-87
2022/10/05 02:16:38;;;;;;;11.20;6.30;;;;;;;10.50;73.04;100978.58;103908;1281;140139;-86
2022/10/05 02:19:41;;;;;;;10.60;6.20;;;;;;;10.45;73.37;100972.98;103934;1283;99478;-86
2022/10/05 02:22:29;;;;;;;12.00;6.60;;;;;;;10.41;73.52;100971.81;103987;1281;140354;-87
2022/10/05 02:25:20;;;;;;;11.40;6.20;;;;;;;10.34;73.67;100963.38;104097;1281;95273;-85
2022/10/05 02:28:18;;;;;;;11.50;6.50;;;;;;;10.32;73.90;100948.31;104037;1281;141255;-88
2022/10/05 02:31:00;;;;;;;12.20;6.40;;;;;;;10.34;73.89;100934.62;104106;1281;108669;-87
2022/10/05 02:33:32;;;;;;;14.10;6.40;;;;;;;10.34;73.78;100929.64;103930;1281;139452;-85
2022/10/05 02:36:16;;;;;;;13.00;6.60;;;;;;;10.34;73.62;100935.34;104173;1281;109398;-86
2022/10/05 02:38:48;;;;;;;12.20;6.40;;;;;;;10.39;73.56;100942.19;104019;1281;95859;-85
2022/10/05 02:41:35;;;;;;;13.50;6.30;;;;;;;10.40;73.60;100948.23;104108;1281;140663;-85
2022/10/05 02:44:13;;;;;;;12.60;6.70;;;;;;;10.44;73.55;100951.88;104159;1281;108739;-87
2022/10/05 02:47:02;;;;;;;12.10;6.90;;;;;;;10.45;73.33;100940.85;104120;1281;139357;-86
2022/10/05 02:49:59;;;;;;;12.20;7.30;;;;;;;10.37;73.55;100938.16;103964;1281;109110;-86
2022/10/05 02:52:43;;;;;;;13.60;7.00;;;;;;;10.36;73.61;100943.48;104027;1281;139635;-85
2022/10/05 02:55:12;;;;;;;13.20;7.20;;;;;;;10.38;73.38;100955.17;104083;1281;95152;-85
2022/10/05 02:57:51;;;;;;;13.60;7.40;;;;;;;10.39;73.37;100959.95;104066;1281;139713;-87
2022/10/05 03:00:36;;;;;;;15.40;7.40;;;;;;;10.35;73.40;100948.64;104273;1281;98819;-86
2022/10/05 03:03:28;;;;;;;13.00;7.40;;;;;;;10.31;73.59;100944.42;103889;1282;139498;-87
2022/10/05 03:06:21;;;;;;;13.80;7.80;;;;;;;10.32;73.53;100964.10;104158;1281;95171;-85
2022/10/05 03:09:05;;;;;;;15.90;7.70;;;;;;;10.35;73.55;100968.16;104212;1281;96165;-86
2022/10/05 03:11:59;;;;;;;13.80;7.80;;;;;;;10.31;73.54;100974.23;104162;1281;108523;-88
2022/10/05 03:14:36;;;;;;;11.70;7.30;;;;;;;10.31;73.62;100975.30;104049;1281;99923;-86
2022/10/05 03:17:12;;;;;;;13.30;7.60;;;;;;;10.30;73.87;100972.66;104161;1281;138868;-85
2022/10/05 03:19:53;;;;;;;14.10;7.90;;;;;;;10.31;73.95;100968.56;104287;1281;95238;-86
2022/10/05 03:22:58;;;;;;;12.90;7.60;;;;;;;10.30;74.00;100967.16;104236;1281;139051;-86
2022/10/05 03:26:08;;;;;;;14.80;8.10;;;;;;;10.33;74.06;100975.27;104103;1281;110190;-85
2022/10/05 03:28:54;;;;;;;13.00;7.80;;;;;;;10.36;73.97;100981.11;104364;1281;139287;-86
2022/10/05 03:31:30;;;;;;;13.30;7.10;;;;;;;10.38;73.93;100984.10;104157;1281;109435;-86
2022/10/05 03:34:09;;;;;;;14.60;7.70;;;;;;;10.40;73.91;100980.02;104131;1281;140981;-84
2022/10/05 03:36:51;;;;;;;14.80;7.80;;;;;;;10.36;73.95;100978.09;104218;1281;95194;-84
2022/10/05 03:39:33;;;;;;;12.80;7.60;;;;;;;10.37;73.84;100975.08;103987;1281;139643;-86
2022/10/05 03:42:33;;;;;;;12.20;7.80;;;;;;;10.38;73.98;100971.14;104056;1281;97343;-87
2022/10/05 03:45:28;;;;;;;16.60;8.20;;;;;;;10.40;73.99;100966.16;104199;1281;107863;-88
2022/10/05 03:48:49;;;;;;;13.10;7.20;;;;;;;10.41;74.11;100949.98;104109;1281;95767;-87
2022/10/05 03:51:44;;;;;;;12.50;7.10;;;;;;;10.42;74.09;100952.27;104000;1281;139662;-87
2022/10/05 03:54:43;;;;;;;12.60;6.90;;;;;;;10.41;74.16;100951.23;104100;1281;108804;-86
2022/10/05 03:57:35;;;;;;;13.10;6.70;;;;;;;10.41;74.38;100958.32;104076;1282;141400;-86
2022/10/05 04:00:11;;;;;;;12.00;6.40;;;;;;;10.48;74.23;100960.14;104268;1281;107729;-87
2022/10/05 04:03:03;;;;;;;14.80;7.90;;;;;;;10.57;73.91;100954.31;104158;1281;95806;-86
2022/10/05 04:06:01;;;;;;;18.60;11.70;;;;;;;10.59;73.87;100951.80;104285;1281;95961;-84
2022/10/05 04:08:46;;;;;;;21.50;15.30;;;;;;;10.64;73.48;100946.56;104261;1281;109245;-86
2022/10/05 04:11:25;;;;;;;15.30;9.10;;;;;;;10.54;73.41;100939.27;104115;1281;138964;-87
2022/10/05 04:14:04;;;;;;;12.30;7.00;;;;;;;10.47;73.57;100939.40;104103;1279;107869;-85
2022/10/05 04:16:41;;;;;;;11.40;6.30;;;;;;;10.46;73.97;100939.08;104024;1280;139027;-85
2022/10/05 04:19:38;;;;;;;14.10;7.80;;;;;;;10.40;74.00;100939.33;104092;1281;95573;-87
2022/10/05 04:22:36;;;;;;;12.00;6.80;;;;;;;10.38;74.24;100945.58;104019;1281;140618;-85
2022/10/05 04:25:31;;;;;;;14.20;6.60;;;;;;;10.43;74.19;100949.41;104191;1281;99812;-85
2022/10/05 04:28:17;;;;;;;13.50;6.60;;;;;;;10.42;74.25;100949.07;104067;1281;139299;-85
2022/10/05 04:30:50;;;;;;;11.40;6.80;;;;;;;10.47;74.32;100954.65;104143;1282;95287;-87
2022/10/05 04:33:20;;;;;;;13.50;6.90;;;;;;;10.50;73.96;100955.31;103958;1283;138701;-87
2022/10/05 04:36:25;;;;;;;13.50;6.90;;;;;;;10.52;74.14;100957.41;104320;1281;108701;-86
2022/10/05 04:38:56;;;;;;;15.70;8.90;;;;;;;10.65;73.87;100961.64;103992;1281;100010;-86
2022/10/05 04:41:52;;;;;;;22.60;12.70;;;;;;;10.68;73.61;100965.12;104001;1281;109672;-86
2022/10/05 04:44:38;;;;;;;23.10;14.80;;;;;;;10.73;73.38;100964.34;103896;1281;95734;-85
2022/10/05 04:47:50;;;;;;;26.40;16.30;;;;;;;10.76;73.37;100970.33;103807;1282;139516;-87
2022/10/05 04:50:31;;;;;;;23.90;15.20;;;;;;;10.82;72.87;100969.68;103991;1281;108601;-86
2022/10/05 04:53:34;;;;;;;18.90;12.20;;;;;;;10.80;72.64;100962.27;103857;1281;139082;-86
2022/10/05 04:56:05;;;;;;;17.00;10.80;;;;;;;10.64;72.83;100962.55;104101;1284;107723;-85
2022/10/05 04:59:11;;;;;;;17.00;11.00;;;;;;;10.59;73.04;100961.38;103792;1281;139996;-85
2022/10/05 05:02:16;;;;;;;17.50;11.90;;;;;;;10.53;73.29;100961.48;104347;1281;95160;-87
2022/10/05 05:05:19;;;;;;;19.50;12.90;;;;;;;10.51;73.40;100965.05;104216;1281;142849;-85
2022/10/05 05:08:04;;;;;;;17.40;11.90;;;;;;;10.54;73.45;100970.17;104321;1281;97412;-87
2022/10/05 05:11:16;;;;;;;19.60;12.30;;;;;;;10.57;73.20;100976.15;104703;1281;139719;-85
2022/10/05 05:14:18;;;;;;;18.60;12.40;;;;;;;10.58;73.41;100974.73;104175;1282;95618;-85
2022/10/05 05:17:00;;;;;;;64.60;44.30;;;;;;;10.59;73.46;100978.95;104127;1281;141037;-85
2022/10/05 05:20:31;;;;;;;23.20;15.00;;;;;;;10.64;73.30;100984.90;104054;1281;110195;-85
2022/10/05 05:23:34;;;;;;;17.10;9.60;;;;;;;10.64;73.45;100982.96;104088;1283;138891;-86
2022/10/05 05:26:13;;;;;;;16.80;9.40;;;;;;;10.60;73.53;100977.16;104411;1284;108273;-87
2022/10/05 05:29:38;;;;;;;16.30;9.10;;;;;;;10.57;73.78;100980.08;104150;1281;141331;-84
2022/10/05 05:32:34;;;;;;;15.00;8.40;;;;;;;10.59;73.92;100978.96;104470;1281;95239;-85
2022/10/05 05:35:13;;;;;;;14.40;8.00;;;;;;;10.54;74.15;100978.15;103951;1281;139353;-86
2022/10/05 05:38:19;;;;;;;13.60;8.10;;;;;;;10.50;74.30;100975.39;104181;1284;98948;-86
2022/10/05 05:41:08;;;;;;;13.50;7.60;;;;;;;10.49;74.45;100979.48;104399;1281;140716;-85
2022/10/05 05:43:59;;;;;;;13.50;7.20;;;;;;;10.50;74.55;100970.77;104559;1281;95733;-84
2022/10/05 05:47:23;;;;;;;12.80;7.30;;;;;;;10.50;74.42;100964.02;104496;1282;140661;-85
2022/10/05 05:50:37;;;;;;;12.30;7.60;;;;;;;10.52;74.29;100966.47;104467;1281;108648;-84
2022/10/05 05:53:05;;;;;;;13.90;7.60;;;;;;;10.57;74.26;100977.23;104106;1281;139651;-84
2022/10/05 05:56:03;;;;;;;13.30;7.30;;;;;;;10.59;74.31;100976.48;104106;1284;109045;-86
2022/10/05 05:58:38;;;;;;;13.20;7.10;;;;;;;10.60;74.28;100975.58;103739;1281;139569;-84
2022/10/05 06:01:12;;;;;;;14.30;6.70;;;;;;;10.64;74.31;100980.12;103911;1284;95203;-85
2022/10/05 06:04:27;;;;;;;13.40;7.30;;;;;;;10.67;74.09;100978.46;103880;1281;140774;-85
2022/10/05 06:07:02;;;;;;;30.00;14.40;;;;;;;10.70;74.16;100982.15;103920;1281;98353;-85
2022/10/05 06:09:40;;;;;;;17.60;10.00;;;;;;;10.70;74.15;100979.30;103936;1281;139592;-85
2022/10/05 06:12:36;;;;;;;15.50;9.10;;;;;;;10.70;74.05;100975.21;104049;1281;97020;-85
2022/10/05 06:15:43;;;;;;;14.10;8.00;;;;;;;10.73;74.16;100977.13;103901;1280;95241;-85
2022/10/05 06:18:15;;;;;;;14.30;7.70;;;;;;;10.82;74.17;100977.84;103550;1287;109162;-86
2022/10/05 06:21:27;;;;;;;14.80;7.70;;;;;;;10.86;74.11;100983.45;104065;1281;98376;-85
2022/10/05 06:24:15;;;;;;;14.50;7.10;;;;;;;10.90;73.98;100979.30;103882;1282;107784;-84
2022/10/05 06:26:55;;;;;;;13.10;6.60;;;;;;;10.94;73.99;100966.96;104083;1281;95571;-84
2022/10/05 06:30:05;;;;;;;13.00;7.10;;;;;;;10.98;74.01;100962.45;103961;1281;139546;-86
2022/10/05 06:32:53;;;;;;;12.30;7.00;;;;;;;11.08;73.73;100961.39;104548;1281;109999;-87
2022/10/05 06:35:41;;;;;;;15.00;6.60;;;;;;;11.15;73.57;100968.36;104125;1281;139534;-86
2022/10/05 06:38:21;;;;;;;12.80;6.80;;;;;;;11.19;73.53;100973.24;104204;1281;107865;-86
2022/10/05 06:41:02;;;;;;;13.50;6.70;;;;;;;11.23;73.45;100960.54;104219;1281;141523;-86
2022/10/05 06:43:42;;;;;;;11.90;6.40;;;;;;;11.22;73.29;100960.39;103849;1284;95308;-84
2022/10/05 06:46:41;;;;;;;13.80;6.90;;;;;;;11.25;73.13;100969.95;103953;1281;139215;-86
2022/10/05 06:49:35;;;;;;;14.70;7.40;;;;;;;11.28;73.17;100977.52;104552;1281;98192;-87
2022/10/05 06:52:39;;;;;;;16.90;9.80;;;;;;;11.35;73.02;100983.95;104028;1281;139200;-87
2022/10/05 06:55:36;;;;;;;16.30;8.30;;;;;;;11.43;72.97;100987.01;104078;1281;95234;-87
2022/10/05 06:59:15;;;;;;;12.40;7.00;;;;;;;11.53;73.03;100989.98;103754;1284;138396;-87
2022/10/05 07:01:50;;;;;;;12.10;6.80;;;;;;;11.58;72.61;100989.00;104083;1281;110200;-88
2022/10/05 07:04:47;;;;;;;11.80;6.40;;;;;;;11.60;72.69;100985.58;103976;1281;140624;-86
2022/10/05 07:07:44;;;;;;;12.90;7.00;;;;;;;11.66;72.73;100990.26;104361;1281;108082;-87
2022/10/05 07:10:31;;;;;;;12.60;7.00;;;;;;;11.69;72.28;100980.60;104077;1281;140435;-85
2022/10/05 07:13:37;;;;;;;14.40;6.90;;;;;;;11.71;72.11;100970.92;104113;1281;96123;-86
2022/10/05 07:16:59;;;;;;;14.00;6.20;;;;;;;11.73;72.18;100971.08;103957;1281;139542;-84
2022/10/05 07:20:13;;;;;;;12.90;6.30;;;;;;;11.76;72.09;100971.55;104031;1282;97404;-86
2022/10/05 07:23:05;;;;;;;14.10;6.60;;;;;;;11.84;71.92;100966.39;103795;1281;139553;-84
2022/10/05 07:25:57;;;;;;;12.80;6.40;;;;;;;11.92;71.66;100963.00;103955;1281;95567;-83
2022/10/05 07:28:42;;;;;;;12.10;6.80;;;;;;;11.98;71.35;100966.81;104138;1281;139135;-86
2022/10/05 07:31:27;;;;;;;11.90;6.40;;;;;;;12.09;71.27;100972.95;104234;1281;110752;-87
2022/10/05 07:34:29;;;;;;;12.00;6.20;;;;;;;12.22;71.27;100971.06;104047;1281;140890;-86
2022/10/05 07:40:51;;;;;;;13.50;5.90;;;;;;;12.55;70.25;100961.35;104041;1282;139959;-86
2022/10/05 07:43:51;;;;;;;10.60;6.30;;;;;;;12.62;69.84;100963.13;104101;1281;95315;-85
2022/10/05 07:47:24;;;;;;;11.10;5.40;;;;;;;12.68;69.38;100955.32;104054;1281;139702;-85
2022/10/05 07:49:56;;;;;;;11.50;5.40;;;;;;;12.76;69.30;100958.33;103656;1281;99977;-86
2022/10/05 07:52:38;;;;;;;10.70;5.30;;;;;;;12.84;69.27;100955.97;104084;1281;140237;-85
2022/10/05 07:55:20;;;;;;;10.70;4.80;;;;;;;12.90;68.67;100953.13;103894;1282;95765;-83
2022/10/05 07:58:14;;;;;;;10.70;5.30;;;;;;;13.00;68.86;100947.16;104259;1281;139404;-84
2022/10/05 08:01:03;;;;;;;11.10;5.40;;;;;;;13.11;68.49;100950.94;104138;1281;110757;-86
2022/10/05 08:03:55;;;;;;;10.20;4.90;;;;;;;13.17;67.87;100947.56;103952;1282;139755;-85
2022/10/05 08:06:47;;;;;;;10.10;5.00;;;;;;;13.30;67.78;100948.81;104223;1281;108218;-84
2022/10/05 08:09:37;;;;;;;10.30;4.80;;;;;;;13.38;67.43;100949.66;104114;1281;139571;-86
2022/10/05 08:12:23;;;;;;;8.90;4.50;;;;;;;13.50;67.61;100953.42;104140;1281;95252;-85
2022/10/05 08:15:02;;;;;;;9.90;4.70;;;;;;;13.59;66.95;100944.42;104187;1281;110256;-85
2022/10/05 08:17:55;;;;;;;9.50;4.60;;;;;;;13.65;66.22;100938.71;104068;1281;139344;-86
2022/10/05 08:20:50;;;;;;;9.10;4.70;;;;;;;13.76;66.24;100933.38;104048;1282;106534;-85
2022/10/05 08:23:29;;;;;;;10.20;4.70;;;;;;;13.93;66.07;100927.14;104196;1281;139308;-84
2022/10/05 08:26:09;;;;;;;9.20;4.70;;;;;;;14.09;66.15;100928.59;104636;1281;95340;-86
2022/10/05 08:28:45;;;;;;;9.80;4.40;;;;;;;14.16;64.97;100928.20;104262;1281;140541;-84
2022/10/05 08:31:22;;;;;;;10.10;4.70;;;;;;;14.20;64.94;100924.66;104384;1281;98147;-84
2022/10/05 08:33:58;;;;;;;10.40;4.70;;;;;;;14.23;64.96;100921.17;104186;1281;139801;-86
2022/10/05 08:36:54;;;;;;;7.70;4.10;;;;;;;14.26;64.67;100916.79;104255;1281;95898;-86
2022/10/05 08:40:08;;;;;;;10.70;4.30;;;;;;;14.34;64.48;100918.66;104139;1281;139685;-86
2022/10/05 08:43:01;;;;;;;9.80;4.50;;;;;;;14.45;64.34;100927.95;104095;1281;110271;-86
2022/10/05 08:46:20;;;;;;;8.90;4.20;;;;;;;14.55;64.17;100926.88;104212;1281;139303;-86
2022/10/05 08:49:38;;;;;;;8.70;4.00;;;;;;;14.65;64.19;100929.95;104205;1282;109867;-86
2022/10/05 08:52:37;;;;;;;8.40;4.20;;;;;;;14.73;64.11;100933.61;104217;1281;139372;-85
2022/10/05 08:55:33;;;;;;;10.70;4.00;;;;;;;14.85;63.94;100928.39;104487;1281;95229;-85
2022/10/05 08:58:36;;;;;;;7.30;3.70;;;;;;;14.87;63.42;100927.23;103981;1281;139163;-85
2022/10/05 09:01:21;;;;;;;8.50;4.10;;;;;;;14.94;63.39;100926.65;104187;1281;98876;-85
2022/10/05 09:04:12;;;;;;;8.60;4.00;;;;;;;15.02;63.11;100917.75;104378;1281;138853;-83
2022/10/05 09:07:00;;;;;;;9.40;4.30;;;;;;;15.12;62.78;100912.77;104371;1281;95555;-85
2022/10/05 09:09:48;;;;;;;10.10;3.90;;;;;;;15.20;62.60;100908.69;104339;1281;139649;-85
2022/10/05 09:13:04;;;;;;;8.20;3.80;;;;;;;15.32;62.45;100906.64;104331;1281;110198;-87
2022/10/05 09:15:57;;;;;;;8.70;4.00;;;;;;;15.43;61.85;100896.91;104297;1281;139763;-85
2022/10/05 09:18:27;;;;;;;8.60;3.80;;;;;;;15.55;61.87;100895.02;104472;1279;108637;-86
2022/10/05 09:21:06;;;;;;;8.50;3.50;;;;;;;15.66;61.39;100892.63;104348;1281;95702;-85
2022/10/05 09:23:41;;;;;;;8.10;3.80;;;;;;;15.78;60.82;100881.07;103910;1282;140238;-86
2022/10/05 09:27:05;;;;;;;9.00;3.50;;;;;;;16.00;60.34;100883.92;103982;1281;108693;-86
2022/10/05 09:29:45;;;;;;;8.40;3.60;;;;;;;16.14;59.31;100880.33;103410;1287;138954;-86
2022/10/05 09:32:45;;;;;;;8.20;3.40;;;;;;;16.25;59.12;100880.41;104146;1281;107768;-85
2022/10/05 09:35:33;;;;;;;8.80;3.40;;;;;;;16.26;59.42;100874.46;104176;1281;139199;-86
2022/10/05 09:38:23;;;;;;;8.20;3.60;;;;;;;16.33;59.74;100874.69;104275;1281;95243;-84
2022/10/05 09:41:20;;;;;;;8.40;3.40;;;;;;;16.43;59.50;100873.73;103997;1282;139651;-85
2022/10/05 09:44:22;;;;;;;8.70;3.50;;;;;;;16.64;58.52;100879.44;104383;1281;97163;-86
2022/10/05 09:47:03;;;;;;;7.90;3.10;;;;;;;16.78;57.30;100875.44;104095;1281;139044;-85
2022/10/05 09:49:59;;;;;;;9.40;3.50;;;;;;;16.86;57.64;100879.73;104156;1281;95786;-85
2022/10/05 09:53:03;;;;;;;8.80;3.30;;;;;;;17.44;56.68;100883.57;104121;1281;139009;-85
2022/10/05 09:56:26;;;;;;;7.70;3.40;;;;;;;18.23;55.67;100885.90;104407;1281;108460;-86
2022/10/05 09:59:22;;;;;;;7.40;3.30;;;;;;;18.64;53.41;100888.08;104149;1281;139323;-85
2022/10/05 10:02:13;;;;;;;9.70;3.90;;;;;;;18.92;53.55;100882.52;104573;1279;108198;-84
2022/10/05 10:05:08;;;;;;;10.30;4.80;;;;;;;19.54;53.06;100878.45;104131;1281;138590;-85
2022/10/05 10:08:13;;;;;;;15.80;8.10;;;;;;;19.93;52.09;100881.64;104305;1281;95681;-85
2022/10/05 10:11:15;;;;;;;10.00;4.30;;;;;;;20.07;49.96;100891.15;104564;1281;138969;-85
2022/10/05 10:14:18;;;;;;;8.00;3.70;;;;;;;20.10;49.53;100896.39;103989;1281;99862;-84
2022/10/05 10:17:05;;;;;;;9.30;3.50;;;;;;;20.01;50.08;100901.04;104178;1281;139085;-86
2022/10/05 10:20:21;;;;;;;8.90;3.60;;;;;;;20.28;49.69;100896.21;104042;1281;95394;-88
2022/10/05 10:22:58;;;;;;;7.90;3.40;;;;;;;20.71;48.76;100900.20;104399;1281;139000;-84
2022/10/05 10:26:01;;;;;;;7.10;3.00;;;;;;;20.71;49.32;100906.70;104644;1281;108783;-87
2022/10/05 10:28:50;;;;;;;8.20;3.60;;;;;;;20.66;48.47;100907.67;104747;1281;138363;-86
2022/10/05 10:31:25;;;;;;;8.40;3.60;;;;;;;20.70;48.34;100900.58;104450;1281;107465;-86
2022/10/05 10:34:19;;;;;;;6.70;3.10;;;;;;;20.60;48.44;100894.65;104420;1281;138496;-85
2022/10/05 10:37:09;;;;;;;8.40;3.70;;;;;;;20.36;48.47;100891.05;104268;1282;95594;-86
2022/10/05 10:40:16;;;;;;;7.80;3.10;;;;;;;20.02;49.30;100882.04;104341;1281;139627;-86
2022/10/05 10:43:21;;;;;;;7.40;3.30;;;;;;;19.63;49.13;100869.46;103787;1285;98938;-87
2022/10/05 10:46:19;;;;;;;6.90;2.70;;;;;;;19.35;50.07;100866.72;103543;1287;139242;-86
2022/10/05 10:48:49;;;;;;;7.10;2.90;;;;;;;19.11;49.90;100865.85;104160;1281;95274;-83
2022/10/05 10:51:55;;;;;;;7.00;3.40;;;;;;;18.93;49.67;100859.95;104151;1281;138383;-86
2022/10/05 10:55:03;;;;;;;8.90;3.10;;;;;;;18.70;50.45;100847.51;104287;1281;108833;-85
2022/10/05 10:58:01;;;;;;;6.80;3.10;;;;;;;18.54;51.29;100844.89;104278;1279;138968;-85
2022/10/05 11:00:53;;;;;;;8.10;3.00;;;;;;;18.44;51.72;100835.04;104492;1280;109231;-84
2022/10/05 11:03:50;;;;;;;7.70;2.90;;;;;;;18.50;52.35;100834.54;104194;1281;138666;-84
2022/10/05 11:07:00;;;;;;;11.20;3.30;;;;;;;18.48;52.18;100841.11;104276;1281;95222;-85
2022/10/05 11:09:58;;;;;;;7.90;2.90;;;;;;;18.45;52.48;100837.28;104143;1281;138730;-83
2022/10/05 11:12:47;;;;;;;7.80;3.10;;;;;;;18.33;52.50;100828.75;104294;1281;98902;-84
2022/10/05 11:15:27;;;;;;;8.90;2.90;;;;;;;18.20;52.00;100831.38;104162;1281;138388;-85
2022/10/05 11:18:19;;;;;;;6.80;2.50;;;;;;;18.16;52.03;100832.14;104607;1279;95442;-83
2022/10/05 11:21:09;;;;;;;6.40;2.90;;;;;;;18.21;52.90;100828.29;104070;1281;95179;-84
2022/10/05 11:23:55;;;;;;;6.40;2.70;;;;;;;18.28;53.12;100831.38;103959;1281;138094;-85
2022/10/05 11:26:33;;;;;;;8.10;2.60;;;;;;;18.29;52.89;100836.48;104200;1281;98186;-87
2022/10/05 11:29:39;;;;;;;6.90;2.60;;;;;;;18.32;52.97;100835.64;103955;1282;138284;-85
2022/10/05 11:32:25;;;;;;;7.40;2.70;;;;;;;18.37;52.00;100833.38;104126;1282;95269;-86
2022/10/05 11:35:05;;;;;;;5.90;2.60;;;;;;;18.36;52.81;100831.10;104069;1281;138464;-87
2022/10/05 11:37:52;;;;;;;7.70;2.90;;;;;;;18.34;52.91;100826.69;104076;1281;109311;-85
2022/10/05 11:40:42;;;;;;;7.20;3.00;;;;;;;18.28;52.63;100823.81;103781;1282;138541;-86
2022/10/05 11:43:41;;;;;;;7.40;3.10;;;;;;;18.20;52.37;100826.89;103981;1282;107780;-85
2022/10/05 11:46:33;;;;;;;7.20;2.90;;;;;;;18.12;52.38;100825.70;103641;1282;138454;-84
2022/10/05 11:49:27;;;;;;;10.50;4.70;;;;;;;18.11;52.94;100821.95;104031;1281;96047;-85
2022/10/05 11:52:12;;;;;;;7.50;3.00;;;;;;;18.05;52.75;100814.55;103862;1281;139156;-86
2022/10/05 11:55:12;;;;;;;7.40;3.60;;;;;;;18.04;52.91;100820.89;104540;1281;98373;-86
2022/10/05 11:58:06;;;;;;;7.40;3.00;;;;;;;18.07;52.63;100827.40;104340;1281;138959;-85
2022/10/05 12:01:16;;;;;;;9.10;3.70;;;;;;;18.02;52.70;100823.30;103969;1281;95344;-85
2022/10/05 12:04:15;;;;;;;7.70;3.40;;;;;;;18.03;53.44;100823.97;104250;1281;138867;-85
2022/10/05 12:07:17;;;;;;;8.90;3.50;;;;;;;18.08;53.97;100823.02;104037;1282;108668;-86
2022/10/05 12:10:16;;;;;;;8.90;3.80;;;;;;;18.10;54.14;100823.64;104051;1282;138701;-87
2022/10/05 12:13:10;;;;;;;8.90;4.00;;;;;;;18.09;54.50;100825.31;104110;1282;107499;-86
2022/10/05 12:15:46;;;;;;;9.90;3.90;;;;;;;18.02;53.92;100821.89;103759;1282;138804;-84
2022/10/05 12:18:28;;;;;;;11.40;3.90;;;;;;;17.98;53.95;100825.33;104456;1281;95645;-84
2022/10/05 12:21:06;;;;;;;8.20;4.00;;;;;;;17.95;53.89;100827.08;104356;1281;108760;-84
2022/10/05 12:23:51;;;;;;;6.90;3.50;;;;;;;17.93;53.98;100822.89;104070;1281;138466;-85
2022/10/05 12:26:25;;;;;;;9.80;3.80;;;;;;;17.95;54.24;100822.98;104240;1282;107612;-86
2022/10/05 12:29:11;;;;;;;10.50;4.20;;;;;;;17.90;54.23;100821.55;104127;1281;138630;-86
2022/10/05 12:32:02;;;;;;;9.10;4.10;;;;;;;17.85;54.69;100816.38;104318;1281;95166;-85
2022/10/05 12:34:47;;;;;;;8.40;4.30;;;;;;;17.82;54.33;100818.17;103974;1282;138301;-85
2022/10/05 12:37:45;;;;;;;8.80;4.30;;;;;;;17.81;54.47;100816.23;104273;1281;98530;-83
2022/10/05 12:40:53;;;;;;;8.10;4.00;;;;;;;17.82;55.15;100816.92;103936;1282;138264;-85
2022/10/05 12:43:33;;;;;;;9.30;4.00;;;;;;;17.80;54.46;100819.16;103834;1282;95724;-85
2022/10/05 12:46:10;;;;;;;8.60;3.90;;;;;;;17.79;54.76;100817.99;103923;1282;138860;-85
2022/10/05 12:49:09;;;;;;;8.80;4.00;;;;;;;17.76;54.86;100817.23;104111;1282;109528;-84
2022/10/05 12:52:05;;;;;;;8.50;4.10;;;;;;;17.71;55.15;100824.62;103991;1282;138580;-84
2022/10/05 12:54:40;;;;;;;9.90;4.40;;;;;;;17.69;55.11;100817.71;104069;1282;109060;-85
2022/10/05 12:57:20;;;;;;;9.40;3.90;;;;;;;17.69;54.97;100814.85;104197;1282;96223;-86
2022/10/05 12:59:56;;;;;;;8.90;4.10;;;;;;;17.67;55.23;100815.85;104079;1282;95203;-86